Terminal Aerodrome Forecast
Issued by NWS

Home | Current Version | Previous Version | Text Only | Print | Product List | Glossary Off
Versions: 1 2 3 4 5 6 7 8 9 10 11 12 13 14 15 16

999
FTUS43 KABR 210526
TAFMBG
TAF
KMBG 210526Z 2106/2206 32014KT P6SM OVC070
     FM211000 33018G26KT P6SM SCT250
     FM220000 VRB04KT P6SM SKC=

USA.gov is the U.S. government's official web portal to all federal, state and local government web resources and services.